New Braunfels, TX

8:43 AM CST on December 04, 2016 (GMT -0600)
New Braunfels Municipal | | Change Station
Active Advisory: Flash Flood Watch Active Notice: Record Report

Elev 643 ft 29.71 °N, 98.05 °W | Updated 32 minutes ago

Overcast
Overcast
52 °F
Feels Like 52 °F
N
13
Wind Variable Wind from NNE

Today
High -- | Low -- °F
--% Chance of Precip.
Yesterday
High -- | Low -- °F
Precip. -- in
Pressure 29.96 in
Visibility 10.0 miles
Clouds Mostly Cloudy 1300 ft
Mostly Cloudy 2200 ft
Overcast 3100 ft
Dew Point 49 °F
Humidity 89%
Rainfall 0.03 in
Snow Depth Not available.
7:12 AM 5:32 PM
Waxing Crescent, 23% visible
SPECI KBAZ 041411Z 03011KT 10SM BKN013 BKN022 OVC031 11/09 A2996 RMK AO2 PRESRR T01110094
Pressure 29.96 in
Visibility 10.0 miles
Clouds Mostly Cloudy 1300 ft
Mostly Cloudy 2200 ft
Overcast 3100 ft
Dew Point 49 °F
Humidity 89%
Rainfall 0.03 in
Snow Depth Not available.
7:12 AM 5:32 PM
Waxing Crescent, 23% visible
SPECI KBAZ 041411Z 03011KT 10SM BKN013 BKN022 OVC031 11/09 A2996 RMK AO2 PRESRR T01110094

10-Day Weather Forecast

Almanac

Astronomy

Dec. 04, 2016 Rise Set
Actual Time
Civil Twilight
Nautical Twilight
Astronomical Twilight
Moon
Length of Visible Light
Length of Day
Tomorrow will be .
, % of the Moon is Illuminated

Today's Extremes

State Highs State Lows

Community

WunderPhotos

Upload Photos

1,955,602 photos uploaded!

WunderBlog® & News

Nearby

Air Quality

  Air Quality AQ Index Pollutant
Not available.

Snow Depth

Station Depth Elevation

Earthquake Activity

City Distance Mag. Time & Date
Minimum magnitude displayed is 2.5.

Coastal Water Temperatures

Place Temperature

Stations

Nearby Weather Stations

Station Location Temp. Windchill Dew Point Humidity Wind Precip. Elev Updated Type
                   

Watches & Warnings

Flash Flood Watch
Issued: 4:54 AM CST Dec. 4, 2016 – National Weather Service

... Flash Flood Watch remains in effect through late tonight...

The Flash Flood Watch continues for

* a portion of south central Texas... including the following
areas... Bandera... Bastrop... Bexar... Caldwell... Comal...
Fayette... Gonzales... Guadalupe... Lavaca... Lee... Medina and
Wilson.

* Through late tonight

* light rain will be possible today with another round of moderate
to locally heavy rainfall expected this evening into early
Monday morning. Rainfall totals of 1 to 3 inches with isolated
higher amounts can be expected. Soils across the watch area are
saturated and any additional moderate to heavy rainfall will
lead to rapid runoff and possible flash flooding.

* Small streams and creeks could experience flooding and result
in flooded low water crossings. Never drive across a Road
covered in water. Turn around... don't drown.

Precautionary/preparedness actions...

A Flash Flood Watch means that conditions may develop that lead
to flash flooding. Flash flooding is a very dangerous situation.

You should monitor later forecasts and be prepared to take action
should flash flood warnings be issued.